Главная страница
METAR-TAF:

METAR-TAF

Аэропорты :

Кристиансунн, Норвегия

широта: 63-07N, долгота: 007-50E, высота над уровнем моря: 6 м

Текущие метеонаблюдения

Эта сводка был подготовлена 29 минут назад, в 05:50 UTC
Ветер 3 Узел переменных направлений
Температура 10°C
Влажность 82%
Давление 993 hPa
Видимость 10 км и более
Рассеянная облачность на высоте 5300 фута

METAR: ENKB 210550Z VRB03KT 9999 BKN053 10/07 Q0993 RMK WIND 745FT 23008KT

Время: 08:19 (06:19 UTC)

Прогноз

Эта сводка был подготовлена 1 час и 19 минут назад, в 05:00 UTC
Прогноз действительный с 21-го 06 UTC до 21-го 15 UTC
Ветер 6 Узел переменных направлений
Видимость 10 км и более
небольшая облачность на высоте 2500 фута
Рассеянная облачность на высоте 4000 фута
изменения
С 21-го 10 UTC до 21-го 12 UTC
Ветер 10 Узел от восточно-северо-восточный

TAF: ENKB 210500Z 2106/2115 VRB06KT 9999 FEW025 BKN040 BECMG 2110/2112 06010KT

Метеонаблюдения и прогнозы для более 4000 аэропортов (сводки METAR и TAF).

Имеющиеся станции представлены на карте желтыми и красными точками.

Чтобы увидеть название станции, наведите на нее мышь.

Затем щелкните, чтобы увидеть метеонаблюдения и метеопрогнозы.

Управление картой: чтобы увеличить масштаб, щелкните зеленые кнопки с черным крестиком; чтобы уменьшить масштаб, щелкните зеленую кнопку с тире; для просмотра соседних карт щелкайте зеленые стрелки.


METAR-TAF: